Time;durP1;ratioP1;P1;durP2;ratioP2;P2;SDS_P1;SDS_P2;PMS_P1;PMS_P2;Temp;Humidity;BMP_temperature;BMP_pressure;BME280_temperature;BME280_humidity;BME280_pressure;Samples;Min_cycle;Max_cycle;Signal;HPM_P1;HPM_P2
2021/01/23 00:00:28;;;;;;;0.63;0.60;;;19.90;43.60;;;;;;6219106;28;20044;-48
2021/01/23 00:03:28;;;;;;;0.90;0.60;;;19.90;43.70;;;;;;6219165;28;20076;-48
2021/01/23 00:06:29;;;;;;;0.70;0.60;;;19.90;43.70;;;;;;6219578;28;20033;-49
2021/01/23 00:09:29;;;;;;;0.55;0.50;;;19.90;43.70;;;;;;6204779;28;20106;-49
2021/01/23 00:12:30;;;;;;;0.98;0.70;;;19.90;43.80;;;;;;6196692;28;20542;-53
2021/01/23 00:15:30;;;;;;;0.88;0.70;;;19.90;43.70;;;;;;6219350;28;20072;-52
2021/01/23 00:18:31;;;;;;;0.70;0.50;;;19.90;43.80;;;;;;6219250;28;20049;-53
2021/01/23 00:21:31;;;;;;;0.70;0.70;;;19.90;43.90;;;;;;6219113;28;20041;-48
2021/01/23 00:24:32;;;;;;;0.95;0.60;;;19.90;43.90;;;;;;6219052;28;20037;-51
2021/01/23 00:27:33;;;;;;;0.98;0.60;;;19.90;43.90;;;;;;6219086;28;20030;-53
2021/01/23 00:30:33;;;;;;;0.40;0.40;;;19.90;43.80;;;;;;6218771;28;20030;-52
2021/01/23 00:33:34;;;;;;;0.50;0.43;;;19.90;43.90;;;;;;6218464;28;20034;-51
2021/01/23 00:36:35;;;;;;;0.80;0.57;;;19.90;43.90;;;;;;6219059;28;20422;-50
2021/01/23 00:39:35;;;;;;;0.95;0.60;;;19.90;43.80;;;;;;6218800;28;20026;-52
2021/01/23 00:42:36;;;;;;;0.85;0.50;;;19.90;43.90;;;;;;6218925;28;20022;-52
2021/01/23 00:45:36;;;;;;;1.02;0.60;;;19.90;43.90;;;;;;6218293;28;20065;-49
2021/01/23 00:48:37;;;;;;;0.70;0.60;;;19.90;43.90;;;;;;6218552;28;20053;-54
2021/01/23 00:51:37;;;;;;;0.70;0.60;;;19.90;43.90;;;;;;6218625;28;20034;-53
2021/01/23 00:54:38;;;;;;;0.70;0.50;;;19.90;43.90;;;;;;6218299;28;20022;-51
2021/01/23 00:57:39;;;;;;;0.77;0.65;;;19.90;43.90;;;;;;6218526;28;20036;-51
2021/01/23 01:00:39;;;;;;;1.05;0.60;;;19.90;44.00;;;;;;6218502;28;20026;-53
2021/01/23 01:03:40;;;;;;;1.02;0.63;;;19.90;44.00;;;;;;6218353;28;20045;-50
2021/01/23 01:06:40;;;;;;;0.57;0.45;;;19.90;43.90;;;;;;6218572;28;20084;-49
2021/01/23 01:09:41;;;;;;;1.33;0.82;;;19.90;44.00;;;;;;6211789;28;20026;-53
2021/01/23 01:12:41;;;;;;;0.93;0.63;;;19.90;44.00;;;;;;6218476;28;20026;-52
2021/01/23 01:15:42;;;;;;;0.40;0.40;;;19.80;43.90;;;;;;6218220;28;20440;-49
2021/01/23 01:18:43;;;;;;;0.63;0.52;;;19.90;44.00;;;;;;6218430;28;20438;-54
2021/01/23 01:21:44;;;;;;;1.15;0.70;;;19.80;43.90;;;;;;6218011;28;20037;-50
2021/01/23 01:24:44;;;;;;;0.90;0.50;;;19.80;44.00;;;;;;6218113;28;20038;-50
2021/01/23 01:27:45;;;;;;;0.63;0.50;;;19.80;44.00;;;;;;6218069;28;20030;-49
2021/01/23 01:30:46;;;;;;;0.68;0.40;;;19.80;44.10;;;;;;6217925;28;20055;-51
2021/01/23 01:33:47;;;;;;;0.85;0.45;;;19.80;44.30;;;;;;6218216;28;20483;-50
2021/01/23 01:36:48;;;;;;;0.82;0.65;;;19.80;43.90;;;;;;6217970;28;20022;-50
2021/01/23 01:39:49;;;;;;;0.70;0.50;;;19.80;44.00;;;;;;6217908;28;20110;-52
2021/01/23 01:42:49;;;;;;;0.60;0.40;;;19.80;44.00;;;;;;6218149;28;20034;-51
2021/01/23 01:45:50;;;;;;;0.80;0.60;;;19.80;44.10;;;;;;6218379;28;20109;-52
2021/01/23 01:48:50;;;;;;;0.40;0.40;;;19.80;44.00;;;;;;6217546;28;20033;-50
2021/01/23 01:51:55;;;;;;;0.57;0.45;;;19.80;44.00;;;;;;6204255;28;20029;-51
2021/01/23 01:54:56;;;;;;;0.73;0.60;;;19.80;44.10;;;;;;6193420;28;20109;-49
2021/01/23 01:57:57;;;;;;;0.40;0.40;;;19.80;44.20;;;;;;6195580;28;20041;-50
2021/01/23 02:00:57;;;;;;;0.73;0.63;;;19.80;44.10;;;;;;6211190;28;20045;-48
2021/01/23 02:04:19;;;;;;;1.02;0.60;;;19.80;44.00;;;;;;6222090;28;20128;-49
2021/01/23 02:07:45;;;;;;;0.70;0.60;;;19.80;44.00;;;;;;6222041;28;20021;-52
2021/01/23 02:11:03;;;;;;;1.10;0.60;;;19.80;44.00;;;;;;6193479;28;20403;-53
2021/01/23 02:14:40;;;;;;;0.70;0.50;;;19.80;44.00;;;;;;6222468;28;20494;-49
2021/01/23 02:18:05;;;;;;;0.93;0.60;;;19.80;44.10;;;;;;6221822;28;20018;-52
2021/01/23 02:21:39;;;;;;;1.27;0.80;;;19.80;44.10;;;;;;6221703;28;20033;-51
2021/01/23 02:24:41;;;;;;;0.50;0.50;;;19.80;44.10;;;;;;6222187;28;20034;-53
2021/01/23 02:28:06;;;;;;;0.85;0.73;;;19.80;44.10;;;;;;6197937;28;20398;-48
2021/01/23 02:31:11;;;;;;;1.05;0.40;;;19.80;44.30;;;;;;6216980;28;20038;-49
2021/01/23 02:34:16;;;;;;;0.55;0.50;;;19.80;44.90;;;;;;6221785;28;20499;-50
2021/01/23 02:37:19;;;;;;;0.65;0.50;;;19.80;44.20;;;;;;6221459;28;20037;-50
2021/01/23 02:40:21;;;;;;;1.10;0.65;;;19.80;44.20;;;;;;6221360;28;20022;-48
2021/01/23 02:43:21;;;;;;;0.75;0.52;;;19.80;44.30;;;;;;6221588;28;20056;-47
2021/01/23 02:46:22;;;;;;;0.80;0.60;;;19.70;44.10;;;;;;6221282;28;20037;-53
2021/01/23 02:49:24;;;;;;;0.75;0.55;;;19.80;44.20;;;;;;6221180;28;20026;-51
2021/01/23 02:52:29;;;;;;;0.70;0.57;;;19.80;44.20;;;;;;6221026;28;20109;-49
2021/01/23 02:55:32;;;;;;;0.57;0.45;;;19.70;44.10;;;;;;6221078;28;20084;-51
2021/01/23 02:58:34;;;;;;;1.02;0.65;;;19.80;44.20;;;;;;6221340;28;20045;-48
2021/01/23 03:01:41;;;;;;;1.08;0.65;;;19.70;44.10;;;;;;6220774;28;20030;-51
2021/01/23 03:04:43;;;;;;;0.80;0.65;;;19.70;44.20;;;;;;6221000;28;20562;-49
2021/01/23 03:07:45;;;;;;;0.75;0.50;;;19.70;44.20;;;;;;6220163;28;20029;-54
2021/01/23 03:10:46;;;;;;;0.55;0.55;;;19.70;44.00;;;;;;6196317;28;20030;-51
2021/01/23 03:13:46;;;;;;;0.70;0.50;;;19.70;44.10;;;;;;6221452;28;20360;-53
2021/01/23 03:16:57;;;;;;;0.50;0.50;;;19.70;44.10;;;;;;6220652;28;20548;-51
2021/01/23 03:19:57;;;;;;;0.70;0.50;;;19.70;44.10;;;;;;6220232;28;20417;-49
2021/01/23 03:22:59;;;;;;;0.70;0.50;;;19.70;44.20;;;;;;6220417;28;20033;-48
2021/01/23 03:26:00;;;;;;;0.93;0.52;;;19.70;44.20;;;;;;6220719;28;20030;-49
2021/01/23 03:29:01;;;;;;;0.70;0.60;;;19.70;44.20;;;;;;6220318;28;20037;-53
2021/01/23 03:32:01;;;;;;;0.80;0.60;;;19.70;44.20;;;;;;6212986;28;20027;-48
2021/01/23 03:35:05;;;;;;;0.80;0.60;;;19.70;44.30;;;;;;6195884;28;20045;-50
2021/01/23 03:38:06;;;;;;;1.27;0.57;;;19.70;44.20;;;;;;6220287;28;20092;-48
2021/01/23 03:41:06;;;;;;;0.90;0.60;;;19.70;44.20;;;;;;6220155;28;20034;-50
2021/01/23 03:44:07;;;;;;;0.65;0.60;;;19.70;44.20;;;;;;6218795;28;20026;-50
2021/01/23 03:47:07;;;;;;;0.65;0.50;;;19.70;44.60;;;;;;6219781;28;20029;-50
2021/01/23 03:50:09;;;;;;;0.63;0.60;;;19.70;44.20;;;;;;6208836;28;20069;-51
2021/01/23 03:53:10;;;;;;;1.05;0.60;;;19.70;44.20;;;;;;6209377;28;20114;-52
2021/01/23 03:56:11;;;;;;;0.60;0.60;;;19.70;44.30;;;;;;6219889;28;20483;-52
2021/01/23 03:59:11;;;;;;;0.75;0.60;;;19.70;44.30;;;;;;6218106;28;20052;-52
2021/01/23 04:02:12;;;;;;;0.60;0.60;;;19.70;44.30;;;;;;6218939;28;20061;-51
2021/01/23 04:05:13;;;;;;;1.00;0.85;;;19.70;44.30;;;;;;6219586;28;20175;-51
2021/01/23 04:08:14;;;;;;;1.15;0.63;;;19.70;44.30;;;;;;6215140;28;20057;-56
2021/01/23 04:11:14;;;;;;;0.80;0.50;;;19.70;44.30;;;;;;6195123;28;20036;-50
2021/01/23 04:14:15;;;;;;;0.60;0.50;;;19.70;44.30;;;;;;6213222;28;20026;-48
2021/01/23 04:17:16;;;;;;;0.63;0.55;;;19.70;44.30;;;;;;6219388;28;20133;-52
2021/01/23 04:20:16;;;;;;;1.27;0.65;;;19.70;44.20;;;;;;6218644;28;20030;-50
2021/01/23 04:23:17;;;;;;;0.95;0.60;;;19.70;44.30;;;;;;6219159;28;20105;-51
2021/01/23 04:26:18;;;;;;;0.60;0.52;;;19.70;44.20;;;;;;6218916;28;20088;-54
2021/01/23 04:29:18;;;;;;;0.98;0.70;;;19.70;44.30;;;;;;6218703;28;20442;-51
2021/01/23 04:32:19;;;;;;;0.60;0.60;;;19.70;44.20;;;;;;6218988;28;20076;-52
2021/01/23 04:35:20;;;;;;;1.02;0.70;;;19.70;44.30;;;;;;6218884;28;20033;-51
2021/01/23 04:38:20;;;;;;;0.60;0.47;;;19.70;44.30;;;;;;6218833;28;20560;-54
2021/01/23 04:41:21;;;;;;;0.95;0.70;;;19.70;44.30;;;;;;6194411;28;20030;-48
2021/01/23 04:44:22;;;;;;;0.90;0.57;;;19.70;44.40;;;;;;6208841;28;20050;-50
2021/01/23 04:47:23;;;;;;;0.90;0.70;;;19.70;44.30;;;;;;6218389;28;20036;-50
2021/01/23 04:50:24;;;;;;;0.63;0.55;;;19.70;44.30;;;;;;6218118;28;20022;-49
2021/01/23 04:53:24;;;;;;;0.70;0.60;;;19.70;44.30;;;;;;6218298;28;20029;-51
2021/01/23 04:56:27;;;;;;;1.17;0.65;;;19.70;44.30;;;;;;6213885;28;20030;-52
2021/01/23 04:59:28;;;;;;;0.60;0.50;;;19.70;44.30;;;;;;6207638;28;20249;-54
2021/01/23 05:02:29;;;;;;;1.05;0.63;;;19.70;44.40;;;;;;6197262;28;20057;-54
2021/01/23 05:05:30;;;;;;;0.90;0.75;;;19.70;44.30;;;;;;6215398;28;20042;-54
2021/01/23 05:08:36;;;;;;;0.65;0.60;;;19.70;44.30;;;;;;6215952;28;20072;-50
2021/01/23 05:11:47;;;;;;;0.52;0.50;;;19.70;44.30;;;;;;6218111;28;20022;-50
2021/01/23 05:14:54;;;;;;;0.88;0.57;;;19.70;44.20;;;;;;6216833;28;20080;-49
2021/01/23 05:18:07;;;;;;;0.80;0.50;;;19.80;44.20;;;;;;6218236;28;20450;-54
2021/01/23 05:21:11;;;;;;;1.00;0.70;;;19.80;44.10;;;;;;6217787;28;20034;-56
2021/01/23 05:24:13;;;;;;;0.63;0.55;;;19.80;44.10;;;;;;6218231;28;20038;-50
2021/01/23 05:27:15;;;;;;;0.55;0.55;;;19.80;44.10;;;;;;6218428;28;20029;-51
2021/01/23 05:30:15;;;;;;;0.82;0.70;;;19.80;44.10;;;;;;6218320;28;20056;-55
2021/01/23 05:33:18;;;;;;;1.00;0.70;;;19.80;44.20;;;;;;6208660;28;20058;-52
2021/01/23 05:36:19;;;;;;;0.88;0.60;;;19.80;44.10;;;;;;6222292;28;20022;-49
2021/01/23 05:39:20;;;;;;;1.00;0.65;;;19.90;44.30;;;;;;6223033;28;20057;-56
2021/01/23 05:42:21;;;;;;;0.70;0.70;;;19.90;44.30;;;;;;6222795;28;20478;-52
2021/01/23 05:45:21;;;;;;;1.25;0.63;;;19.90;44.30;;;;;;6221116;28;20050;-52
2021/01/23 05:48:22;;;;;;;0.88;0.60;;;19.90;44.30;;;;;;6222594;28;20108;-54
2021/01/23 05:51:24;;;;;;;0.57;0.45;;;19.90;44.30;;;;;;6222452;28;20037;-52
2021/01/23 05:54:24;;;;;;;1.58;0.60;;;19.90;45.10;;;;;;6222613;28;20410;-51
2021/01/23 05:57:25;;;;;;;0.93;0.50;;;19.90;44.40;;;;;;6222712;28;20035;-56
2021/01/23 06:00:27;;;;;;;0.57;0.50;;;19.90;44.30;;;;;;6222649;28;20049;-49
2021/01/23 06:03:42;;;;;;;0.90;0.70;;;19.90;45.10;;;;;;6222366;28;20533;-52
2021/01/23 06:06:44;;;;;;;0.70;0.60;;;19.90;44.40;;;;;;6222132;28;20030;-53
2021/01/23 06:09:45;;;;;;;1.10;0.52;;;19.90;44.40;;;;;;6210302;28;20093;-51
2021/01/23 06:12:45;;;;;;;0.80;0.60;;;19.90;44.40;;;;;;6221800;28;20022;-55
2021/01/23 06:15:47;;;;;;;0.88;0.50;;;19.90;44.50;;;;;;6211113;28;20064;-56
2021/01/23 06:18:47;;;;;;;0.73;0.52;;;19.90;44.40;;;;;;6222011;28;20041;-50
2021/01/23 06:21:48;;;;;;;0.95;0.52;;;19.90;44.90;;;;;;6222085;28;20064;-52
2021/01/23 06:24:49;;;;;;;1.20;0.63;;;19.90;44.50;;;;;;6221888;28;20691;-55
2021/01/23 06:27:49;;;;;;;1.00;0.75;;;19.90;44.50;;;;;;6221443;28;20037;-53
2021/01/23 06:30:50;;;;;;;1.42;0.80;;;19.90;44.50;;;;;;6221724;28;20066;-51
2021/01/23 06:33:51;;;;;;;0.73;0.70;;;19.90;44.50;;;;;;6222065;28;20120;-54
2021/01/23 06:37:21;;;;;;;0.98;0.60;;;19.90;44.50;;;;;;6221945;28;20079;-51
2021/01/23 06:40:28;;;;;;;0.70;0.60;;;19.90;44.50;;;;;;6221802;28;20114;-52
2021/01/23 06:43:28;;;;;;;0.98;0.60;;;19.90;44.50;;;;;;6220869;28;20085;-50
2021/01/23 06:46:29;;;;;;;0.43;0.43;;;19.90;44.50;;;;;;6221238;28;20025;-51
2021/01/23 06:49:29;;;;;;;0.75;0.70;;;19.90;44.50;;;;;;6221223;28;20052;-54
2021/01/23 06:52:30;;;;;;;0.82;0.60;;;19.90;44.50;;;;;;6220898;28;20032;-54
2021/01/23 06:55:46;;;;;;;0.57;0.50;;;19.90;44.50;;;;;;6212516;28;20022;-50
2021/01/23 06:58:47;;;;;;;0.77;0.77;;;19.90;44.50;;;;;;6198189;28;20030;-53
2021/01/23 07:02:04;;;;;;;0.60;0.50;;;19.90;44.60;;;;;;6210457;28;20391;-50
2021/01/23 07:05:09;;;;;;;1.15;0.50;;;19.90;44.60;;;;;;6220847;28;20053;-53
2021/01/23 07:08:17;;;;;;;1.27;0.60;;;19.90;44.60;;;;;;6216706;28;20053;-52
2021/01/23 07:11:18;;;;;;;0.68;0.55;;;19.90;44.60;;;;;;6204975;28;20030;-50
2021/01/23 07:14:19;;;;;;;0.70;0.52;;;19.90;44.60;;;;;;6220679;28;20033;-55
2021/01/23 07:17:19;;;;;;;1.13;0.70;;;19.90;44.60;;;;;;6220380;28;20038;-50
2021/01/23 07:20:20;;;;;;;1.00;0.75;;;19.90;44.60;;;;;;6220562;28;20033;-48
2021/01/23 07:23:21;;;;;;;1.17;0.75;;;19.90;44.60;;;;;;6220673;28;20025;-54
2021/01/23 07:26:23;;;;;;;0.90;0.70;;;19.90;44.60;;;;;;6220672;28;20030;-51
2021/01/23 07:29:24;;;;;;;0.93;0.60;;;19.90;44.60;;;;;;6208155;28;20040;-53
2021/01/23 07:32:35;;;;;;;0.82;0.60;;;19.90;44.60;;;;;;6210184;28;20017;-54
2021/01/23 07:35:37;;;;;;;0.85;0.50;;;19.90;44.60;;;;;;6220700;28;20041;-52
2021/01/23 07:38:38;;;;;;;1.20;0.70;;;19.90;44.60;;;;;;6221063;28;20030;-52
2021/01/23 07:41:51;;;;;;;0.65;0.50;;;19.90;44.60;;;;;;6220786;28;20068;-48
2021/01/23 07:44:52;;;;;;;1.35;0.70;;;19.90;44.50;;;;;;6221225;28;20034;-53
2021/01/23 07:48:02;;;;;;;0.80;0.70;;;19.90;44.50;;;;;;6221108;28;20075;-48
2021/01/23 07:51:03;;;;;;;0.90;0.70;;;19.90;44.60;;;;;;6219809;28;20034;-50
2021/01/23 07:54:05;;;;;;;0.70;0.60;;;19.90;44.60;;;;;;6196665;28;20053;-50
2021/01/23 07:57:11;;;;;;;0.98;0.70;;;19.90;44.60;;;;;;6204024;28;20025;-51
2021/01/23 08:00:20;;;;;;;0.77;0.55;;;19.90;44.60;;;;;;6221026;28;20034;-47
2021/01/23 08:03:34;;;;;;;0.82;0.70;;;19.90;44.60;;;;;;6202316;28;20078;-49
2021/01/23 08:06:34;;;;;;;0.77;0.60;;;19.90;44.60;;;;;;6207745;28;20018;-49
2021/01/23 08:09:35;;;;;;;0.50;0.50;;;19.90;44.60;;;;;;6204818;28;20037;-50
2021/01/23 08:12:41;;;;;;;1.40;0.68;;;19.90;44.60;;;;;;6207012;28;20033;-52
2021/01/23 08:15:41;;;;;;;1.02;0.60;;;19.90;44.60;;;;;;6220647;28;20022;-55
2021/01/23 08:18:43;;;;;;;1.10;0.63;;;19.90;44.70;;;;;;6220368;28;20029;-49
2021/01/23 08:22:06;;;;;;;0.85;0.63;;;19.90;44.60;;;;;;6220444;28;20283;-46
2021/01/23 08:25:50;;;;;;;1.10;0.70;;;19.90;44.60;;;;;;6219064;28;20041;-49
2021/01/23 08:28:50;;;;;;;0.70;0.60;;;19.90;44.60;;;;;;6222520;28;20026;-50
2021/01/23 08:32:01;;;;;;;0.82;0.65;;;19.90;44.70;;;;;;6194913;28;20037;-49
2021/01/23 08:35:04;;;;;;;1.17;0.70;;;19.90;44.60;;;;;;6195349;28;20050;-50
2021/01/23 08:38:06;;;;;;;0.65;0.60;;;19.90;44.60;;;;;;6203797;28;20058;-52
2021/01/23 08:41:06;;;;;;;0.85;0.57;;;19.90;44.60;;;;;;6201110;28;20030;-52
2021/01/23 08:44:07;;;;;;;0.63;0.45;;;19.90;44.60;;;;;;6211250;28;20026;-49
2021/01/23 08:47:08;;;;;;;1.20;0.82;;;19.90;44.60;;;;;;6219137;28;20045;-49
2021/01/23 08:50:09;;;;;;;1.08;0.60;;;19.90;44.60;;;;;;6219226;28;20034;-51
2021/01/23 08:53:10;;;;;;;0.90;0.73;;;19.90;44.60;;;;;;6218700;28;20542;-49
2021/01/23 08:56:15;;;;;;;0.60;0.60;;;19.90;44.70;;;;;;6218741;28;20053;-49
2021/01/23 08:59:16;;;;;;;0.70;0.63;;;19.90;44.70;;;;;;6219050;28;20056;-48
2021/01/23 09:02:17;;;;;;;1.48;0.88;;;19.90;44.60;;;;;;6217454;28;20030;-49
2021/01/23 09:05:17;;;;;;;0.65;0.60;;;19.90;44.60;;;;;;6218648;28;20037;-49
2021/01/23 09:08:18;;;;;;;1.92;0.68;;;19.90;44.60;;;;;;6212996;28;20034;-49
2021/01/23 09:11:18;;;;;;;0.82;0.80;;;19.90;44.60;;;;;;6194368;28;20088;-51
2021/01/23 09:14:19;;;;;;;1.25;0.70;;;19.90;44.60;;;;;;6206691;28;20111;-49
2021/01/23 09:17:20;;;;;;;0.93;0.70;;;19.90;44.50;;;;;;6218714;28;20030;-51
2021/01/23 09:20:20;;;;;;;1.35;1.00;;;19.90;44.60;;;;;;6218121;28;20076;-51
2021/01/23 09:23:21;;;;;;;0.73;0.70;;;19.90;44.60;;;;;;6218709;28;20434;-52
2021/01/23 09:26:23;;;;;;;1.17;0.75;;;19.90;44.60;;;;;;6217101;28;20116;-49
2021/01/23 09:29:23;;;;;;;1.38;0.90;;;19.90;44.60;;;;;;6216883;28;20399;-48
2021/01/23 09:32:24;;;;;;;0.70;0.60;;;19.90;44.60;;;;;;6218139;28;20026;-49
2021/01/23 09:35:24;;;;;;;1.50;0.90;;;19.90;44.60;;;;;;6218108;28;20034;-49
2021/01/23 09:38:26;;;;;;;0.88;0.70;;;19.90;44.60;;;;;;6218442;28;20038;-50
2021/01/23 09:41:26;;;;;;;1.13;0.80;;;19.90;44.60;;;;;;6217840;28;20570;-50
2021/01/23 09:44:27;;;;;;;0.88;0.68;;;19.90;44.60;;;;;;6217971;28;20029;-50
2021/01/23 09:47:28;;;;;;;1.05;0.70;;;19.90;44.60;;;;;;6218157;28;20061;-54
2021/01/23 09:50:28;;;;;;;1.42;1.00;;;19.90;44.60;;;;;;6217867;28;20060;-51
2021/01/23 09:53:29;;;;;;;1.58;0.80;;;19.90;44.60;;;;;;6212235;28;20062;-49
2021/01/23 09:56:29;;;;;;;0.82;0.70;;;19.90;44.60;;;;;;6218084;28;20038;-51
2021/01/23 09:59:31;;;;;;;1.98;0.90;;;19.90;44.60;;;;;;6217744;28;20071;-52
2021/01/23 10:02:34;;;;;;;2.25;0.80;;;19.90;44.60;;;;;;6218146;28;20037;-50
2021/01/23 10:05:34;;;;;;;1.42;0.80;;;19.90;44.50;;;;;;6201363;28;20484;-49
2021/01/23 10:08:35;;;;;;;1.20;0.82;;;20.00;44.50;;;;;;6193694;28;20035;-49
2021/01/23 10:11:36;;;;;;;1.15;0.70;;;20.00;44.20;;;;;;6217807;28;20034;-48
2021/01/23 10:14:36;;;;;;;0.80;0.70;;;20.10;44.30;;;;;;6217835;28;20048;-52
2021/01/23 10:17:37;;;;;;;0.68;0.63;;;20.10;44.20;;;;;;6218039;28;20066;-53
2021/01/23 10:20:38;;;;;;;1.27;0.88;;;20.10;44.30;;;;;;6222114;28;20048;-50
2021/01/23 10:23:39;;;;;;;1.50;0.90;;;20.10;44.20;;;;;;6222146;28;20681;-51
2021/01/23 10:26:40;;;;;;;1.67;0.80;;;20.10;44.20;;;;;;6222282;28;20053;-49
2021/01/23 10:29:40;;;;;;;1.20;0.80;;;20.10;45.00;;;;;;6221873;28;20327;-51
2021/01/23 10:32:41;;;;;;;0.93;0.80;;;20.10;44.20;;;;;;6222052;28;20022;-53
2021/01/23 10:35:42;;;;;;;1.48;0.90;;;20.10;44.20;;;;;;6222131;28;20029;-51
2021/01/23 10:38:42;;;;;;;1.15;0.88;;;20.10;44.30;;;;;;6222087;28;20656;-51
2021/01/23 10:41:43;;;;;;;1.88;0.93;;;20.10;44.40;;;;;;6221575;28;20042;-49
2021/01/23 10:44:43;;;;;;;1.17;1.00;;;20.10;44.20;;;;;;6221654;28;20053;-50
2021/01/23 10:47:44;;;;;;;1.65;1.00;;;20.10;44.20;;;;;;6221668;28;20404;-52
2021/01/23 10:50:45;;;;;;;1.58;0.90;;;20.10;44.20;;;;;;6220848;28;20026;-53
2021/01/23 10:53:48;;;;;;;1.45;1.00;;;20.10;44.30;;;;;;6221156;28;20430;-50
2021/01/23 10:56:48;;;;;;;1.90;0.95;;;20.10;44.20;;;;;;6221335;28;20026;-50
2021/01/23 10:59:50;;;;;;;0.90;0.80;;;20.10;44.30;;;;;;6221156;28;20387;-49
2021/01/23 11:02:50;;;;;;;1.70;0.90;;;20.10;44.40;;;;;;6221468;28;20108;-52
2021/01/23 11:05:55;;;;;;;1.80;0.90;;;20.10;44.30;;;;;;6221248;28;20030;-51
2021/01/23 11:08:56;;;;;;;1.17;0.80;;;20.10;44.40;;;;;;6210744;28;20026;-49
2021/01/23 11:11:57;;;;;;;1.95;1.00;;;20.00;44.40;;;;;;6213208;28;20088;-51
2021/01/23 11:14:57;;;;;;;1.95;0.90;;;20.00;44.30;;;;;;6220884;28;20026;-51
2021/01/23 11:17:58;;;;;;;1.30;0.95;;;20.00;44.30;;;;;;6221313;28;20100;-48
2021/01/23 11:20:58;;;;;;;2.30;0.98;;;20.00;44.30;;;;;;6220332;28;20387;-53
2021/01/23 11:23:59;;;;;;;10.60;1.63;;;20.00;44.30;;;;;;6221169;28;20057;-56
2021/01/23 11:27:00;;;;;;;29.95;3.08;;;20.00;44.60;;;;;;6220262;28;20030;-50
2021/01/23 11:30:00;;;;;;;11.63;2.20;;;19.80;42.80;;;;;;6219658;28;20030;-52
2021/01/23 11:33:01;;;;;;;6.60;2.10;;;19.90;43.20;;;;;;6219761;28;20053;-50
2021/01/23 11:36:03;;;;;;;3.60;1.50;;;19.90;42.90;;;;;;6218803;28;20161;-50
2021/01/23 11:39:04;;;;;;;4.15;1.67;;;19.90;43.80;;;;;;6219657;28;20042;-49
2021/01/23 11:42:05;;;;;;;9.38;2.03;;;20.00;43.40;;;;;;6219772;28;20487;-54
2021/01/23 11:45:08;;;;;;;6.18;1.48;;;20.00;43.40;;;;;;6217494;28;20026;-51
2021/01/23 11:48:09;;;;;;;3.13;1.42;;;19.90;43.50;;;;;;6217015;28;20021;-48
2021/01/23 11:51:10;;;;;;;5.43;1.45;;;20.00;43.60;;;;;;6220087;28;20022;-52
2021/01/23 11:54:10;;;;;;;4.25;1.27;;;20.00;43.70;;;;;;6220179;28;20030;-51
2021/01/23 11:57:11;;;;;;;7.28;1.80;;;20.00;43.80;;;;;;6219761;28;20101;-49
2021/01/23 12:00:12;;;;;;;2.70;1.17;;;20.00;43.80;;;;;;6219674;28;20041;-53
2021/01/23 12:03:13;;;;;;;2.60;1.27;;;20.00;43.90;;;;;;6219458;28;20058;-50
2021/01/23 12:06:13;;;;;;;1.42;0.95;;;20.00;44.00;;;;;;6218258;28;20120;-49
2021/01/23 12:09:14;;;;;;;3.22;1.25;;;20.00;43.90;;;;;;6206818;28;20026;-51
2021/01/23 12:12:15;;;;;;;2.30;1.00;;;20.00;44.00;;;;;;6205812;28;20026;-49
2021/01/23 12:15:18;;;;;;;2.05;1.13;;;20.00;44.10;;;;;;6219559;28;20018;-52
2021/01/23 12:18:18;;;;;;;2.55;1.30;;;20.00;44.10;;;;;;6217999;28;20509;-52
2021/01/23 12:21:19;;;;;;;2.20;1.00;;;20.00;44.10;;;;;;6219328;28;20097;-51
2021/01/23 12:24:20;;;;;;;3.78;1.38;;;20.00;44.10;;;;;;6219153;28;20022;-53
2021/01/23 12:27:21;;;;;;;2.42;1.25;;;20.00;44.10;;;;;;6219094;28;20026;-51
2021/01/23 12:30:22;;;;;;;2.08;1.05;;;20.00;44.10;;;;;;6201367;28;20071;-49
2021/01/23 12:33:23;;;;;;;3.63;1.15;;;20.00;44.20;;;;;;6219073;28;20038;-49
2021/01/23 12:36:24;;;;;;;2.25;1.15;;;20.00;44.10;;;;;;6218739;28;20022;-49
2021/01/23 12:39:24;;;;;;;1.80;0.93;;;20.00;44.20;;;;;;6219227;28;20101;-51
2021/01/23 12:42:25;;;;;;;1.70;1.23;;;20.00;44.20;;;;;;6218059;28;20141;-49
2021/01/23 12:45:26;;;;;;;2.03;1.20;;;20.00;44.20;;;;;;6218902;28;20491;-51
2021/01/23 12:48:26;;;;;;;7.18;1.20;;;20.00;44.20;;;;;;6217012;28;20041;-49
2021/01/23 12:51:27;;;;;;;3.08;1.33;;;20.00;44.20;;;;;;6218457;28;20026;-53
2021/01/23 12:54:28;;;;;;;1.58;1.00;;;20.00;44.20;;;;;;6218037;28;20080;-49
2021/01/23 12:57:28;;;;;;;3.78;1.20;;;20.00;44.20;;;;;;6218663;28;20022;-56
2021/01/23 13:00:29;;;;;;;3.20;1.17;;;20.00;44.30;;;;;;6218503;28;20053;-52
2021/01/23 13:03:29;;;;;;;1.83;1.23;;;20.00;44.30;;;;;;6218270;28;20403;-50
2021/01/23 13:06:30;;;;;;;2.15;1.10;;;20.00;44.30;;;;;;6218400;28;20076;-51
2021/01/23 13:09:30;;;;;;;1.60;1.00;;;20.00;44.30;;;;;;6203462;28;20043;-51
2021/01/23 13:12:31;;;;;;;1.98;1.10;;;20.00;44.30;;;;;;6196711;28;20028;-48
2021/01/23 13:15:32;;;;;;;2.80;1.45;;;20.00;44.30;;;;;;6218634;28;20029;-49
2021/01/23 13:18:32;;;;;;;1.23;0.93;;;20.00;44.40;;;;;;6206214;28;20030;-50
2021/01/23 13:21:33;;;;;;;2.45;1.08;;;20.00;44.40;;;;;;6218156;28;20113;-50
2021/01/23 13:24:33;;;;;;;1.23;1.00;;;20.00;44.40;;;;;;6218038;28;20114;-52
2021/01/23 13:27:35;;;;;;;1.67;0.90;;;20.00;44.40;;;;;;6218254;28;20026;-49
2021/01/23 13:30:36;;;;;;;1.63;1.10;;;20.00;44.40;;;;;;6217888;28;20025;-49
2021/01/23 13:33:37;;;;;;;1.90;1.27;;;20.00;44.40;;;;;;6218875;28;20045;-52
2021/01/23 13:36:37;;;;;;;1.80;0.95;;;20.00;44.40;;;;;;6218285;28;20447;-50
2021/01/23 13:39:38;;;;;;;2.05;1.00;;;20.00;44.40;;;;;;6218695;28;20022;-49
2021/01/23 13:42:39;;;;;;;1.77;0.90;;;20.00;44.40;;;;;;6218342;28;20084;-50
2021/01/23 13:45:40;;;;;;;1.60;1.00;;;20.00;44.50;;;;;;6218257;28;20041;-49
2021/01/23 13:48:40;;;;;;;1.55;0.90;;;20.00;44.50;;;;;;6218040;28;20025;-50
2021/01/23 13:51:41;;;;;;;1.23;0.90;;;20.00;44.50;;;;;;6218307;28;20022;-51
2021/01/23 13:54:45;;;;;;;1.83;1.10;;;20.00;44.50;;;;;;6209976;28;20023;-52
2021/01/23 13:57:45;;;;;;;1.45;0.90;;;20.00;44.60;;;;;;6198498;28;20041;-50
2021/01/23 14:00:46;;;;;;;1.35;0.90;;;20.00;44.50;;;;;;6198164;28;20110;-53
2021/01/23 14:03:46;;;;;;;2.47;1.20;;;20.00;44.60;;;;;;6202591;28;20100;-53
2021/01/23 14:06:47;;;;;;;1.40;0.80;;;20.00;44.50;;;;;;6222984;28;20069;-52
2021/01/23 14:09:47;;;;;;;1.73;0.98;;;20.00;44.60;;;;;;6218579;28;20029;-52
2021/01/23 14:12:48;;;;;;;1.77;1.15;;;20.00;44.60;;;;;;6222516;28;20076;-51
2021/01/23 14:15:48;;;;;;;1.20;0.80;;;20.00;44.60;;;;;;6222125;28;20072;-54
2021/01/23 14:18:49;;;;;;;1.02;0.80;;;20.00;44.60;;;;;;6222348;28;20112;-52
2021/01/23 14:21:50;;;;;;;1.55;0.93;;;20.00;44.60;;;;;;6220760;28;20116;-50
2021/01/23 14:24:50;;;;;;;1.02;0.90;;;20.00;44.60;;;;;;6222840;28;20058;-50
2021/01/23 14:27:51;;;;;;;2.08;1.08;;;20.00;44.60;;;;;;6220747;28;20140;-51
2021/01/23 14:30:52;;;;;;;1.33;0.80;;;20.00;44.60;;;;;;6221512;28;20084;-51
2021/01/23 14:33:53;;;;;;;2.13;0.98;;;20.00;44.60;;;;;;6222422;28;20042;-51
2021/01/23 14:36:53;;;;;;;2.42;1.20;;;20.00;44.70;;;;;;6221781;28;20073;-50
2021/01/23 14:39:54;;;;;;;1.35;0.90;;;20.00;44.70;;;;;;6221375;28;20037;-52
2021/01/23 14:42:55;;;;;;;1.77;1.15;;;20.00;44.60;;;;;;6221487;28;20025;-50
2021/01/23 14:45:55;;;;;;;1.52;1.20;;;20.00;44.60;;;;;;6221805;28;20076;-50
2021/01/23 14:48:56;;;;;;;1.13;0.93;;;20.00;44.60;;;;;;6221493;28;20041;-52
2021/01/23 14:51:57;;;;;;;1.83;1.02;;;20.00;44.60;;;;;;6221144;28;20029;-54
2021/01/23 14:54:57;;;;;;;1.85;0.82;;;20.00;44.70;;;;;;6221142;28;20038;-52
2021/01/23 14:57:58;;;;;;;2.00;0.90;;;20.00;44.60;;;;;;6221580;28;20048;-50
2021/01/23 15:00:58;;;;;;;1.52;0.90;;;20.00;44.70;;;;;;6221016;28;20025;-51
2021/01/23 15:03:59;;;;;;;1.25;0.80;;;20.00;44.70;;;;;;6219242;28;20092;-50
2021/01/23 15:07:00;;;;;;;1.63;0.95;;;20.00;44.70;;;;;;6221013;28;20026;-51
2021/01/23 15:10:00;;;;;;;1.10;0.90;;;20.00;44.70;;;;;;6207323;28;20498;-50
2021/01/23 15:13:02;;;;;;;2.33;1.05;;;20.00;44.70;;;;;;6220955;28;20026;-49
2021/01/23 15:16:04;;;;;;;1.50;1.02;;;20.00;44.70;;;;;;6221220;28;20243;-50
2021/01/23 15:19:05;;;;;;;1.27;0.93;;;20.00;44.70;;;;;;6221008;28;20029;-49
2021/01/23 15:22:06;;;;;;;2.50;1.23;;;20.00;44.60;;;;;;6220734;28;20045;-52
2021/01/23 15:25:07;;;;;;;1.15;0.80;;;20.00;44.70;;;;;;6216608;28;20047;-52
2021/01/23 15:28:07;;;;;;;1.13;1.00;;;20.00;44.70;;;;;;6196721;28;20031;-50
2021/01/23 15:31:08;;;;;;;1.17;0.98;;;20.00;44.70;;;;;;6207801;28;20029;-53
2021/01/23 15:34:09;;;;;;;1.00;0.90;;;20.00;44.70;;;;;;6219678;28;20022;-50
2021/01/23 15:37:09;;;;;;;1.50;1.00;;;20.00;44.70;;;;;;6220515;28;20100;-51
2021/01/23 15:40:11;;;;;;;1.23;1.00;;;20.00;44.70;;;;;;6220307;28;20101;-51
2021/01/23 15:43:11;;;;;;;1.17;1.08;;;20.00;45.40;;;;;;6198977;28;20029;-51
2021/01/23 15:46:12;;;;;;;1.25;0.90;;;20.00;44.70;;;;;;6206217;28;20475;-50